sensor_id;sensor_type;location;lat;lon;timestamp;P1;durP1;ratioP1;P2;durP2;ratioP2
76320;SDS011;65132;52.088;5.402;2024-02-16T00:01:09;4.72;;;1.95;;
76320;SDS011;65132;52.088;5.402;2024-02-16T00:03:36;7.18;;;2.53;;
76320;SDS011;65132;52.088;5.402;2024-02-16T00:06:03;7.03;;;1.95;;
76320;SDS011;65132;52.088;5.402;2024-02-16T00:08:31;4.88;;;2.10;;
76320;SDS011;65132;52.088;5.402;2024-02-16T00:10:57;7.05;;;2.60;;
76320;SDS011;65132;52.088;5.402;2024-02-16T00:13:23;5.25;;;2.30;;
76320;SDS011;65132;52.088;5.402;2024-02-16T00:16:08;6.70;;;2.00;;
76320;SDS011;65132;52.088;5.402;2024-02-16T00:18:36;5.13;;;1.90;;
76320;SDS011;65132;52.088;5.402;2024-02-16T00:21:11;5.97;;;2.47;;
76320;SDS011;65132;52.088;5.402;2024-02-16T00:23:40;4.15;;;1.80;;
76320;SDS011;65132;52.088;5.402;2024-02-16T00:26:07;5.72;;;2.33;;
76320;SDS011;65132;52.088;5.402;2024-02-16T00:28:33;6.25;;;2.20;;
76320;SDS011;65132;52.088;5.402;2024-02-16T00:31:00;6.13;;;2.10;;
76320;SDS011;65132;52.088;5.402;2024-02-16T00:33:26;5.63;;;1.92;;
76320;SDS011;65132;52.088;5.402;2024-02-16T00:35:52;5.45;;;2.25;;
76320;SDS011;65132;52.088;5.402;2024-02-16T00:38:19;7.60;;;2.20;;
76320;SDS011;65132;52.088;5.402;2024-02-16T00:40:45;6.28;;;2.60;;
76320;SDS011;65132;52.088;5.402;2024-02-16T00:43:19;3.97;;;2.15;;
76320;SDS011;65132;52.088;5.402;2024-02-16T00:45:53;6.18;;;2.13;;
76320;SDS011;65132;52.088;5.402;2024-02-16T00:48:40;6.80;;;2.45;;
76320;SDS011;65132;52.088;5.402;2024-02-16T00:51:06;4.53;;;2.17;;
76320;SDS011;65132;52.088;5.402;2024-02-16T00:53:49;5.28;;;2.25;;
76320;SDS011;65132;52.088;5.402;2024-02-16T00:56:23;5.10;;;1.90;;
76320;SDS011;65132;52.088;5.402;2024-02-16T00:58:49;4.78;;;2.50;;
76320;SDS011;65132;52.088;5.402;2024-02-16T01:01:15;6.30;;;2.05;;
76320;SDS011;65132;52.088;5.402;2024-02-16T01:03:42;6.82;;;2.70;;
76320;SDS011;65132;52.088;5.402;2024-02-16T01:06:08;5.53;;;2.42;;
76320;SDS011;65132;52.088;5.402;2024-02-16T01:08:34;6.13;;;2.15;;
76320;SDS011;65132;52.088;5.402;2024-02-16T01:11:01;5.90;;;2.53;;
76320;SDS011;65132;52.088;5.402;2024-02-16T01:13:27;7.07;;;2.53;;
76320;SDS011;65132;52.088;5.402;2024-02-16T01:15:55;4.95;;;2.42;;
76320;SDS011;65132;52.088;5.402;2024-02-16T01:18:21;5.97;;;2.30;;
76320;SDS011;65132;52.088;5.402;2024-02-16T01:20:48;6.85;;;2.35;;
76320;SDS011;65132;52.088;5.402;2024-02-16T01:23:17;3.47;;;1.60;;
76320;SDS011;65132;52.088;5.402;2024-02-16T01:25:43;5.90;;;2.42;;
76320;SDS011;65132;52.088;5.402;2024-02-16T01:28:09;4.50;;;2.10;;
76320;SDS011;65132;52.088;5.402;2024-02-16T01:30:36;6.55;;;2.40;;
76320;SDS011;65132;52.088;5.402;2024-02-16T01:33:02;5.88;;;2.15;;
76320;SDS011;65132;52.088;5.402;2024-02-16T01:35:29;6.72;;;2.20;;
76320;SDS011;65132;52.088;5.402;2024-02-16T01:37:55;7.20;;;2.90;;
76320;SDS011;65132;52.088;5.402;2024-02-16T01:40:21;6.82;;;2.35;;
76320;SDS011;65132;52.088;5.402;2024-02-16T01:42:48;4.47;;;2.25;;
76320;SDS011;65132;52.088;5.402;2024-02-16T01:45:14;5.65;;;2.47;;
76320;SDS011;65132;52.088;5.402;2024-02-16T01:47:41;6.68;;;2.50;;
76320;SDS011;65132;52.088;5.402;2024-02-16T01:50:08;4.45;;;1.90;;
76320;SDS011;65132;52.088;5.402;2024-02-16T01:52:34;4.80;;;2.47;;
76320;SDS011;65132;52.088;5.402;2024-02-16T01:55:01;4.30;;;2.30;;
76320;SDS011;65132;52.088;5.402;2024-02-16T01:57:27;3.92;;;1.92;;
76320;SDS011;65132;52.088;5.402;2024-02-16T01:59:54;5.03;;;2.30;;
76320;SDS011;65132;52.088;5.402;2024-02-16T02:05:24;4.90;;;2.00;;
76320;SDS011;65132;52.088;5.402;2024-02-16T02:07:50;3.95;;;2.03;;
76320;SDS011;65132;52.088;5.402;2024-02-16T02:10:17;4.63;;;2.15;;
76320;SDS011;65132;52.088;5.402;2024-02-16T02:12:43;11.25;;;2.80;;
76320;SDS011;65132;52.088;5.402;2024-02-16T02:15:10;6.22;;;2.40;;
76320;SDS011;65132;52.088;5.402;2024-02-16T02:17:36;5.18;;;2.08;;
76320;SDS011;65132;52.088;5.402;2024-02-16T02:20:03;5.10;;;2.30;;
76320;SDS011;65132;52.088;5.402;2024-02-16T02:22:29;4.07;;;1.88;;
76320;SDS011;65132;52.088;5.402;2024-02-16T02:24:56;5.15;;;2.55;;
76320;SDS011;65132;52.088;5.402;2024-02-16T02:27:22;5.20;;;2.38;;
76320;SDS011;65132;52.088;5.402;2024-02-16T02:29:48;6.22;;;2.30;;
76320;SDS011;65132;52.088;5.402;2024-02-16T02:32:15;5.20;;;2.20;;
76320;SDS011;65132;52.088;5.402;2024-02-16T02:34:41;7.15;;;2.60;;
76320;SDS011;65132;52.088;5.402;2024-02-16T02:37:07;5.60;;;2.58;;
76320;SDS011;65132;52.088;5.402;2024-02-16T02:39:34;7.43;;;2.33;;
76320;SDS011;65132;52.088;5.402;2024-02-16T02:42:01;4.68;;;1.95;;
76320;SDS011;65132;52.088;5.402;2024-02-16T02:44:27;4.80;;;2.35;;
76320;SDS011;65132;52.088;5.402;2024-02-16T02:46:53;8.90;;;2.85;;
76320;SDS011;65132;52.088;5.402;2024-02-16T02:49:20;6.55;;;2.63;;
76320;SDS011;65132;52.088;5.402;2024-02-16T02:51:47;5.07;;;1.67;;
76320;SDS011;65132;52.088;5.402;2024-02-16T02:54:13;6.43;;;2.50;;
76320;SDS011;65132;52.088;5.402;2024-02-16T02:56:39;6.53;;;2.50;;
76320;SDS011;65132;52.088;5.402;2024-02-16T02:59:06;6.32;;;2.75;;
76320;SDS011;65132;52.088;5.402;2024-02-16T03:01:35;6.53;;;2.53;;
76320;SDS011;65132;52.088;5.402;2024-02-16T03:04:02;6.55;;;2.63;;
76320;SDS011;65132;52.088;5.402;2024-02-16T03:06:28;5.15;;;2.00;;
76320;SDS011;65132;52.088;5.402;2024-02-16T03:08:55;5.30;;;2.42;;
76320;SDS011;65132;52.088;5.402;2024-02-16T03:11:21;5.35;;;2.30;;
76320;SDS011;65132;52.088;5.402;2024-02-16T03:13:48;4.07;;;2.33;;
76320;SDS011;65132;52.088;5.402;2024-02-16T03:16:14;5.90;;;2.50;;
76320;SDS011;65132;52.088;5.402;2024-02-16T03:18:40;6.40;;;2.75;;
76320;SDS011;65132;52.088;5.402;2024-02-16T03:21:07;4.65;;;2.40;;
76320;SDS011;65132;52.088;5.402;2024-02-16T03:23:36;7.18;;;2.75;;
76320;SDS011;65132;52.088;5.402;2024-02-16T03:26:04;6.18;;;2.70;;
76320;SDS011;65132;52.088;5.402;2024-02-16T03:28:31;5.60;;;2.78;;
76320;SDS011;65132;52.088;5.402;2024-02-16T03:30:57;4.40;;;2.10;;
76320;SDS011;65132;52.088;5.402;2024-02-16T03:33:23;4.88;;;2.25;;
76320;SDS011;65132;52.088;5.402;2024-02-16T03:35:50;5.72;;;2.38;;
76320;SDS011;65132;52.088;5.402;2024-02-16T03:38:16;3.45;;;1.83;;
76320;SDS011;65132;52.088;5.402;2024-02-16T03:40:42;4.43;;;2.08;;
76320;SDS011;65132;52.088;5.402;2024-02-16T03:43:09;5.15;;;2.55;;
76320;SDS011;65132;52.088;5.402;2024-02-16T03:45:35;5.40;;;2.58;;
76320;SDS011;65132;52.088;5.402;2024-02-16T03:48:02;5.65;;;2.83;;
76320;SDS011;65132;52.088;5.402;2024-02-16T03:50:28;8.38;;;2.33;;
76320;SDS011;65132;52.088;5.402;2024-02-16T03:52:55;3.97;;;2.20;;
76320;SDS011;65132;52.088;5.402;2024-02-16T03:55:22;5.18;;;2.40;;
76320;SDS011;65132;52.088;5.402;2024-02-16T03:57:49;4.97;;;2.20;;
76320;SDS011;65132;52.088;5.402;2024-02-16T04:00:15;4.55;;;2.30;;
76320;SDS011;65132;52.088;5.402;2024-02-16T04:02:42;6.22;;;2.20;;
76320;SDS011;65132;52.088;5.402;2024-02-16T04:05:08;5.57;;;2.20;;
76320;SDS011;65132;52.088;5.402;2024-02-16T04:07:35;6.90;;;2.00;;
76320;SDS011;65132;52.088;5.402;2024-02-16T04:10:01;5.35;;;2.33;;
76320;SDS011;65132;52.088;5.402;2024-02-16T04:12:28;7.20;;;2.35;;
76320;SDS011;65132;52.088;5.402;2024-02-16T04:14:54;5.22;;;2.13;;
76320;SDS011;65132;52.088;5.402;2024-02-16T04:17:21;5.63;;;2.83;;
76320;SDS011;65132;52.088;5.402;2024-02-16T04:19:47;4.90;;;2.40;;
76320;SDS011;65132;52.088;5.402;2024-02-16T04:22:13;4.90;;;2.05;;
76320;SDS011;65132;52.088;5.402;2024-02-16T04:24:40;4.65;;;2.20;;
76320;SDS011;65132;52.088;5.402;2024-02-16T04:27:06;4.05;;;1.92;;
76320;SDS011;65132;52.088;5.402;2024-02-16T04:29:34;4.88;;;2.00;;
76320;SDS011;65132;52.088;5.402;2024-02-16T04:32:01;5.15;;;2.00;;
76320;SDS011;65132;52.088;5.402;2024-02-16T04:34:27;6.57;;;2.42;;
76320;SDS011;65132;52.088;5.402;2024-02-16T04:36:57;6.80;;;2.15;;
76320;SDS011;65132;52.088;5.402;2024-02-16T04:39:23;4.32;;;2.03;;
76320;SDS011;65132;52.088;5.402;2024-02-16T04:41:50;6.20;;;2.92;;
76320;SDS011;65132;52.088;5.402;2024-02-16T04:44:16;6.57;;;1.73;;
76320;SDS011;65132;52.088;5.402;2024-02-16T04:46:43;5.85;;;2.33;;
76320;SDS011;65132;52.088;5.402;2024-02-16T04:49:09;4.78;;;2.17;;
76320;SDS011;65132;52.088;5.402;2024-02-16T04:51:36;5.40;;;2.20;;
76320;SDS011;65132;52.088;5.402;2024-02-16T04:54:02;5.28;;;2.25;;
76320;SDS011;65132;52.088;5.402;2024-02-16T04:56:29;4.78;;;2.40;;
76320;SDS011;65132;52.088;5.402;2024-02-16T04:58:55;5.50;;;2.30;;
76320;SDS011;65132;52.088;5.402;2024-02-16T05:01:22;8.48;;;2.42;;
76320;SDS011;65132;52.088;5.402;2024-02-16T05:06:43;4.80;;;2.30;;
76320;SDS011;65132;52.088;5.402;2024-02-16T05:09:24;4.38;;;2.25;;
76320;SDS011;65132;52.088;5.402;2024-02-16T05:11:54;4.53;;;2.00;;
76320;SDS011;65132;52.088;5.402;2024-02-16T05:14:43;5.32;;;2.40;;
76320;SDS011;65132;52.088;5.402;2024-02-16T05:17:27;7.20;;;2.28;;
76320;SDS011;65132;52.088;5.402;2024-02-16T05:20:07;4.97;;;1.95;;
76320;SDS011;65132;52.088;5.402;2024-02-16T05:22:34;6.90;;;2.60;;
76320;SDS011;65132;52.088;5.402;2024-02-16T05:25:00;6.50;;;2.17;;
76320;SDS011;65132;52.088;5.402;2024-02-16T05:27:27;7.35;;;1.92;;
76320;SDS011;65132;52.088;5.402;2024-02-16T05:29:53;5.28;;;2.30;;
76320;SDS011;65132;52.088;5.402;2024-02-16T05:32:20;6.78;;;2.20;;
76320;SDS011;65132;52.088;5.402;2024-02-16T05:34:46;5.78;;;2.42;;
76320;SDS011;65132;52.088;5.402;2024-02-16T05:37:12;4.60;;;2.15;;
76320;SDS011;65132;52.088;5.402;2024-02-16T05:39:39;6.65;;;2.58;;
76320;SDS011;65132;52.088;5.402;2024-02-16T05:42:05;5.60;;;1.95;;
76320;SDS011;65132;52.088;5.402;2024-02-16T05:44:32;7.75;;;1.92;;
76320;SDS011;65132;52.088;5.402;2024-02-16T05:46:58;6.25;;;2.80;;
76320;SDS011;65132;52.088;5.402;2024-02-16T05:49:26;7.05;;;2.58;;
76320;SDS011;65132;52.088;5.402;2024-02-16T05:52:05;5.03;;;2.20;;
76320;SDS011;65132;52.088;5.402;2024-02-16T05:54:31;6.95;;;2.75;;
76320;SDS011;65132;52.088;5.402;2024-02-16T05:57:03;6.22;;;2.13;;
76320;SDS011;65132;52.088;5.402;2024-02-16T05:59:29;6.15;;;2.03;;
76320;SDS011;65132;52.088;5.402;2024-02-16T06:01:56;4.45;;;2.20;;
76320;SDS011;65132;52.088;5.402;2024-02-16T06:04:22;5.18;;;2.00;;
76320;SDS011;65132;52.088;5.402;2024-02-16T06:06:48;4.95;;;1.90;;
76320;SDS011;65132;52.088;5.402;2024-02-16T06:09:15;5.03;;;2.05;;
76320;SDS011;65132;52.088;5.402;2024-02-16T06:11:41;5.72;;;2.13;;
76320;SDS011;65132;52.088;5.402;2024-02-16T06:14:08;7.30;;;2.38;;
76320;SDS011;65132;52.088;5.402;2024-02-16T06:16:34;6.30;;;2.20;;
76320;SDS011;65132;52.088;5.402;2024-02-16T06:19:03;5.05;;;1.90;;
76320;SDS011;65132;52.088;5.402;2024-02-16T06:21:32;8.63;;;2.15;;
76320;SDS011;65132;52.088;5.402;2024-02-16T06:23:59;4.65;;;1.77;;
76320;SDS011;65132;52.088;5.402;2024-02-16T06:26:25;3.85;;;1.85;;
76320;SDS011;65132;52.088;5.402;2024-02-16T06:28:55;3.95;;;1.92;;
76320;SDS011;65132;52.088;5.402;2024-02-16T06:31:35;5.18;;;2.78;;
76320;SDS011;65132;52.088;5.402;2024-02-16T06:34:07;5.78;;;1.83;;
76320;SDS011;65132;52.088;5.402;2024-02-16T06:36:34;6.05;;;1.95;;
76320;SDS011;65132;52.088;5.402;2024-02-16T06:39:00;5.85;;;2.10;;
76320;SDS011;65132;52.088;5.402;2024-02-16T06:41:27;4.43;;;1.80;;
76320;SDS011;65132;52.088;5.402;2024-02-16T06:43:53;6.18;;;1.95;;
76320;SDS011;65132;52.088;5.402;2024-02-16T06:46:19;5.45;;;1.98;;
76320;SDS011;65132;52.088;5.402;2024-02-16T06:52:17;5.22;;;2.17;;
76320;SDS011;65132;52.088;5.402;2024-02-16T06:55:19;4.97;;;1.80;;
76320;SDS011;65132;52.088;5.402;2024-02-16T06:58:25;4.25;;;1.80;;
76320;SDS011;65132;52.088;5.402;2024-02-16T07:07:32;3.95;;;1.83;;
76320;SDS011;65132;52.088;5.402;2024-02-16T07:10:33;5.15;;;2.10;;
76320;SDS011;65132;52.088;5.402;2024-02-16T07:13:05;5.97;;;1.88;;
76320;SDS011;65132;52.088;5.402;2024-02-16T07:15:32;4.80;;;2.35;;
76320;SDS011;65132;52.088;5.402;2024-02-16T07:17:58;4.68;;;2.05;;
76320;SDS011;65132;52.088;5.402;2024-02-16T07:20:28;6.03;;;2.38;;
76320;SDS011;65132;52.088;5.402;2024-02-16T07:22:56;3.85;;;1.90;;
76320;SDS011;65132;52.088;5.402;2024-02-16T07:25:23;5.90;;;1.85;;
76320;SDS011;65132;52.088;5.402;2024-02-16T07:27:49;6.40;;;2.13;;
76320;SDS011;65132;52.088;5.402;2024-02-16T07:30:15;4.00;;;1.92;;
76320;SDS011;65132;52.088;5.402;2024-02-16T07:32:52;7.13;;;2.20;;
76320;SDS011;65132;52.088;5.402;2024-02-16T07:35:19;6.97;;;2.28;;
76320;SDS011;65132;52.088;5.402;2024-02-16T07:37:48;6.60;;;2.47;;
76320;SDS011;65132;52.088;5.402;2024-02-16T07:40:15;4.82;;;2.25;;
76320;SDS011;65132;52.088;5.402;2024-02-16T07:42:41;2.95;;;1.42;;
76320;SDS011;65132;52.088;5.402;2024-02-16T07:45:08;4.65;;;2.20;;
76320;SDS011;65132;52.088;5.402;2024-02-16T07:47:36;5.78;;;2.80;;
76320;SDS011;65132;52.088;5.402;2024-02-16T07:59:22;5.70;;;1.90;;
76320;SDS011;65132;52.088;5.402;2024-02-16T08:01:49;5.65;;;2.40;;
76320;SDS011;65132;52.088;5.402;2024-02-16T08:04:15;6.68;;;2.67;;
76320;SDS011;65132;52.088;5.402;2024-02-16T08:10:46;7.82;;;2.30;;
76320;SDS011;65132;52.088;5.402;2024-02-16T08:13:12;7.18;;;2.70;;
76320;SDS011;65132;52.088;5.402;2024-02-16T08:15:39;5.50;;;2.33;;
76320;SDS011;65132;52.088;5.402;2024-02-16T08:18:05;5.07;;;2.17;;
76320;SDS011;65132;52.088;5.402;2024-02-16T08:20:34;5.55;;;2.58;;
76320;SDS011;65132;52.088;5.402;2024-02-16T08:23:04;5.43;;;2.50;;
76320;SDS011;65132;52.088;5.402;2024-02-16T08:25:30;6.03;;;2.75;;
76320;SDS011;65132;52.088;5.402;2024-02-16T08:27:56;6.35;;;1.90;;
76320;SDS011;65132;52.088;5.402;2024-02-16T08:30:25;7.55;;;2.60;;
76320;SDS011;65132;52.088;5.402;2024-02-16T08:32:54;7.30;;;2.50;;
76320;SDS011;65132;52.088;5.402;2024-02-16T08:35:21;6.43;;;3.00;;
76320;SDS011;65132;52.088;5.402;2024-02-16T08:37:48;7.10;;;2.47;;
76320;SDS011;65132;52.088;5.402;2024-02-16T08:40:22;5.97;;;2.53;;
76320;SDS011;65132;52.088;5.402;2024-02-16T08:43:20;6.13;;;2.83;;
76320;SDS011;65132;52.088;5.402;2024-02-16T08:45:48;5.90;;;2.15;;
76320;SDS011;65132;52.088;5.402;2024-02-16T08:48:16;7.97;;;2.83;;
76320;SDS011;65132;52.088;5.402;2024-02-16T08:50:53;4.95;;;2.67;;
76320;SDS011;65132;52.088;5.402;2024-02-16T08:53:26;6.95;;;2.47;;
76320;SDS011;65132;52.088;5.402;2024-02-16T08:55:53;5.75;;;2.47;;
76320;SDS011;65132;52.088;5.402;2024-02-16T08:58:19;5.10;;;2.58;;
76320;SDS011;65132;52.088;5.402;2024-02-16T09:00:46;6.57;;;2.80;;
76320;SDS011;65132;52.088;5.402;2024-02-16T09:03:12;7.70;;;2.47;;
76320;SDS011;65132;52.088;5.402;2024-02-16T09:05:39;5.90;;;2.25;;
76320;SDS011;65132;52.088;5.402;2024-02-16T09:08:05;7.15;;;3.25;;
76320;SDS011;65132;52.088;5.402;2024-02-16T09:10:32;7.13;;;2.45;;
76320;SDS011;65132;52.088;5.402;2024-02-16T09:12:58;6.10;;;2.90;;
76320;SDS011;65132;52.088;5.402;2024-02-16T09:15:25;5.80;;;2.40;;
76320;SDS011;65132;52.088;5.402;2024-02-16T09:17:51;5.63;;;2.80;;
76320;SDS011;65132;52.088;5.402;2024-02-16T09:20:20;5.80;;;2.47;;
76320;SDS011;65132;52.088;5.402;2024-02-16T09:22:47;9.15;;;3.13;;
76320;SDS011;65132;52.088;5.402;2024-02-16T09:25:17;5.40;;;2.53;;
76320;SDS011;65132;52.088;5.402;2024-02-16T09:27:43;8.85;;;3.08;;
76320;SDS011;65132;52.088;5.402;2024-02-16T09:30:11;7.38;;;3.10;;
76320;SDS011;65132;52.088;5.402;2024-02-16T09:32:41;8.20;;;3.03;;
76320;SDS011;65132;52.088;5.402;2024-02-16T09:35:08;5.78;;;2.78;;
76320;SDS011;65132;52.088;5.402;2024-02-16T09:37:34;7.75;;;3.03;;
76320;SDS011;65132;52.088;5.402;2024-02-16T09:40:05;6.32;;;3.03;;
76320;SDS011;65132;52.088;5.402;2024-02-16T09:42:40;8.02;;;3.55;;
76320;SDS011;65132;52.088;5.402;2024-02-16T09:45:09;10.02;;;3.20;;
76320;SDS011;65132;52.088;5.402;2024-02-16T09:47:35;5.80;;;2.97;;
76320;SDS011;65132;52.088;5.402;2024-02-16T09:50:03;6.95;;;3.05;;
76320;SDS011;65132;52.088;5.402;2024-02-16T09:52:30;6.65;;;2.97;;
76320;SDS011;65132;52.088;5.402;2024-02-16T09:54:57;7.60;;;2.83;;
76320;SDS011;65132;52.088;5.402;2024-02-16T09:57:26;7.97;;;3.00;;
76320;SDS011;65132;52.088;5.402;2024-02-16T09:59:52;6.78;;;3.05;;
76320;SDS011;65132;52.088;5.402;2024-02-16T10:02:19;6.97;;;3.53;;
76320;SDS011;65132;52.088;5.402;2024-02-16T10:04:45;7.50;;;3.13;;
76320;SDS011;65132;52.088;5.402;2024-02-16T10:07:12;7.53;;;3.17;;
76320;SDS011;65132;52.088;5.402;2024-02-16T10:09:46;7.82;;;3.95;;
76320;SDS011;65132;52.088;5.402;2024-02-16T10:12:17;7.45;;;3.22;;
76320;SDS011;65132;52.088;5.402;2024-02-16T10:14:53;6.57;;;3.20;;
76320;SDS011;65132;52.088;5.402;2024-02-16T10:17:19;6.57;;;2.70;;
76320;SDS011;65132;52.088;5.402;2024-02-16T10:20:06;6.40;;;2.88;;
76320;SDS011;65132;52.088;5.402;2024-02-16T10:22:35;8.90;;;4.30;;
76320;SDS011;65132;52.088;5.402;2024-02-16T10:25:08;8.07;;;3.60;;
76320;SDS011;65132;52.088;5.402;2024-02-16T10:27:35;8.88;;;3.65;;
76320;SDS011;65132;52.088;5.402;2024-02-16T10:30:02;10.77;;;4.28;;
76320;SDS011;65132;52.088;5.402;2024-02-16T10:32:33;10.52;;;4.60;;
76320;SDS011;65132;52.088;5.402;2024-02-16T10:35:00;6.53;;;3.30;;
76320;SDS011;65132;52.088;5.402;2024-02-16T10:37:30;8.45;;;4.28;;
76320;SDS011;65132;52.088;5.402;2024-02-16T10:39:57;11.88;;;4.57;;
76320;SDS011;65132;52.088;5.402;2024-02-16T10:42:27;9.40;;;4.55;;
76320;SDS011;65132;52.088;5.402;2024-02-16T10:44:54;9.15;;;4.57;;
76320;SDS011;65132;52.088;5.402;2024-02-16T10:47:21;10.82;;;5.40;;
76320;SDS011;65132;52.088;5.402;2024-02-16T10:49:47;9.43;;;4.75;;
76320;SDS011;65132;52.088;5.402;2024-02-16T10:52:14;10.15;;;4.65;;
76320;SDS011;65132;52.088;5.402;2024-02-16T10:54:41;7.75;;;3.83;;
76320;SDS011;65132;52.088;5.402;2024-02-16T10:57:08;8.23;;;4.28;;
76320;SDS011;65132;52.088;5.402;2024-02-16T10:59:42;8.48;;;4.30;;
76320;SDS011;65132;52.088;5.402;2024-02-16T11:02:08;8.27;;;4.47;;
76320;SDS011;65132;52.088;5.402;2024-02-16T11:04:36;10.25;;;5.25;;
76320;SDS011;65132;52.088;5.402;2024-02-16T11:07:09;12.00;;;5.18;;
76320;SDS011;65132;52.088;5.402;2024-02-16T11:09:38;9.98;;;5.63;;
76320;SDS011;65132;52.088;5.402;2024-02-16T11:12:05;11.25;;;6.30;;
76320;SDS011;65132;52.088;5.402;2024-02-16T11:17:02;11.25;;;6.50;;
76320;SDS011;65132;52.088;5.402;2024-02-16T11:19:29;10.48;;;6.45;;
76320;SDS011;65132;52.088;5.402;2024-02-16T11:21:56;11.90;;;6.57;;
76320;SDS011;65132;52.088;5.402;2024-02-16T11:24:29;14.48;;;6.85;;
76320;SDS011;65132;52.088;5.402;2024-02-16T11:26:56;13.60;;;6.68;;
76320;SDS011;65132;52.088;5.402;2024-02-16T11:29:23;11.23;;;5.72;;
76320;SDS011;65132;52.088;5.402;2024-02-16T11:31:50;14.32;;;7.38;;
76320;SDS011;65132;52.088;5.402;2024-02-16T11:34:23;11.25;;;6.68;;
76320;SDS011;65132;52.088;5.402;2024-02-16T11:36:51;10.65;;;6.72;;
76320;SDS011;65132;52.088;5.402;2024-02-16T11:39:20;14.68;;;7.25;;
76320;SDS011;65132;52.088;5.402;2024-02-16T11:41:46;11.52;;;6.35;;
76320;SDS011;65132;52.088;5.402;2024-02-16T11:44:13;14.15;;;7.13;;
76320;SDS011;65132;52.088;5.402;2024-02-16T11:46:39;16.08;;;7.00;;
76320;SDS011;65132;52.088;5.402;2024-02-16T11:49:06;14.20;;;7.10;;
76320;SDS011;65132;52.088;5.402;2024-02-16T11:51:32;14.00;;;7.53;;
76320;SDS011;65132;52.088;5.402;2024-02-16T11:53:59;16.15;;;7.72;;
76320;SDS011;65132;52.088;5.402;2024-02-16T11:59:32;12.25;;;7.18;;
76320;SDS011;65132;52.088;5.402;2024-02-16T12:01:59;14.13;;;7.22;;
76320;SDS011;65132;52.088;5.402;2024-02-16T12:04:26;14.50;;;7.50;;
76320;SDS011;65132;52.088;5.402;2024-02-16T12:06:57;14.75;;;7.50;;
76320;SDS011;65132;52.088;5.402;2024-02-16T12:09:31;16.42;;;7.82;;
76320;SDS011;65132;52.088;5.402;2024-02-16T12:11:58;15.88;;;7.63;;
76320;SDS011;65132;52.088;5.402;2024-02-16T12:14:25;16.13;;;7.03;;
76320;SDS011;65132;52.088;5.402;2024-02-16T12:16:52;14.82;;;7.40;;
76320;SDS011;65132;52.088;5.402;2024-02-16T12:19:18;15.27;;;7.07;;
76320;SDS011;65132;52.088;5.402;2024-02-16T12:21:45;12.32;;;6.93;;
76320;SDS011;65132;52.088;5.402;2024-02-16T12:24:14;13.43;;;6.97;;
76320;SDS011;65132;52.088;5.402;2024-02-16T12:26:40;13.40;;;6.60;;
76320;SDS011;65132;52.088;5.402;2024-02-16T12:29:11;13.45;;;6.65;;
76320;SDS011;65132;52.088;5.402;2024-02-16T12:31:41;11.48;;;5.75;;
76320;SDS011;65132;52.088;5.402;2024-02-16T12:34:07;11.60;;;5.60;;
76320;SDS011;65132;52.088;5.402;2024-02-16T12:36:35;10.02;;;5.20;;
76320;SDS011;65132;52.088;5.402;2024-02-16T12:39:02;9.85;;;5.18;;
76320;SDS011;65132;52.088;5.402;2024-02-16T12:41:29;8.80;;;3.92;;
76320;SDS011;65132;52.088;5.402;2024-02-16T12:43:56;7.05;;;3.35;;
76320;SDS011;65132;52.088;5.402;2024-02-16T12:46:22;5.75;;;2.67;;
76320;SDS011;65132;52.088;5.402;2024-02-16T12:48:48;5.53;;;2.80;;
76320;SDS011;65132;52.088;5.402;2024-02-16T12:51:19;4.90;;;2.33;;
76320;SDS011;65132;52.088;5.402;2024-02-16T12:53:45;3.63;;;1.90;;
76320;SDS011;65132;52.088;5.402;2024-02-16T12:56:12;3.60;;;1.80;;
76320;SDS011;65132;52.088;5.402;2024-02-16T12:58:38;4.13;;;1.83;;
76320;SDS011;65132;52.088;5.402;2024-02-16T13:01:05;4.45;;;1.63;;
76320;SDS011;65132;52.088;5.402;2024-02-16T13:03:44;3.47;;;1.50;;
76320;SDS011;65132;52.088;5.402;2024-02-16T13:06:11;5.28;;;1.50;;
76320;SDS011;65132;52.088;5.402;2024-02-16T13:08:38;3.25;;;1.50;;
76320;SDS011;65132;52.088;5.402;2024-02-16T13:11:04;3.65;;;1.95;;
76320;SDS011;65132;52.088;5.402;2024-02-16T13:13:31;3.72;;;1.38;;
76320;SDS011;65132;52.088;5.402;2024-02-16T13:15:57;3.22;;;1.05;;
76320;SDS011;65132;52.088;5.402;2024-02-16T13:18:24;2.92;;;1.10;;
76320;SDS011;65132;52.088;5.402;2024-02-16T13:20:52;3.17;;;0.98;;
76320;SDS011;65132;52.088;5.402;2024-02-16T13:23:19;3.20;;;1.30;;
76320;SDS011;65132;52.088;5.402;2024-02-16T13:25:46;3.10;;;1.40;;
76320;SDS011;65132;52.088;5.402;2024-02-16T13:28:12;2.92;;;1.20;;
76320;SDS011;65132;52.088;5.402;2024-02-16T13:30:38;3.15;;;1.45;;
76320;SDS011;65132;52.088;5.402;2024-02-16T13:33:05;2.67;;;1.23;;
76320;SDS011;65132;52.088;5.402;2024-02-16T13:35:31;2.95;;;1.20;;
76320;SDS011;65132;52.088;5.402;2024-02-16T13:37:58;4.68;;;1.35;;
76320;SDS011;65132;52.088;5.402;2024-02-16T13:40:24;3.70;;;1.33;;
76320;SDS011;65132;52.088;5.402;2024-02-16T13:42:50;3.38;;;1.23;;
76320;SDS011;65132;52.088;5.402;2024-02-16T13:45:17;2.78;;;1.13;;
76320;SDS011;65132;52.088;5.402;2024-02-16T13:47:43;3.20;;;0.88;;
76320;SDS011;65132;52.088;5.402;2024-02-16T13:50:10;2.60;;;1.10;;
76320;SDS011;65132;52.088;5.402;2024-02-16T13:52:36;2.65;;;0.73;;
76320;SDS011;65132;52.088;5.402;2024-02-16T13:55:03;1.88;;;0.75;;
76320;SDS011;65132;52.088;5.402;2024-02-16T13:57:32;2.20;;;0.88;;
76320;SDS011;65132;52.088;5.402;2024-02-16T13:59:59;2.78;;;1.00;;
76320;SDS011;65132;52.088;5.402;2024-02-16T14:02:26;2.92;;;0.93;;
76320;SDS011;65132;52.088;5.402;2024-02-16T14:04:52;2.70;;;0.85;;
76320;SDS011;65132;52.088;5.402;2024-02-16T14:07:19;2.97;;;1.20;;
76320;SDS011;65132;52.088;5.402;2024-02-16T14:09:46;3.85;;;0.80;;
76320;SDS011;65132;52.088;5.402;2024-02-16T14:12:12;3.05;;;0.77;;
76320;SDS011;65132;52.088;5.402;2024-02-16T14:14:39;3.47;;;0.95;;
76320;SDS011;65132;52.088;5.402;2024-02-16T14:17:05;4.45;;;1.35;;
76320;SDS011;65132;52.088;5.402;2024-02-16T14:19:32;3.33;;;1.17;;
76320;SDS011;65132;52.088;5.402;2024-02-16T14:22:00;2.90;;;1.25;;
76320;SDS011;65132;52.088;5.402;2024-02-16T14:24:29;3.50;;;1.45;;
76320;SDS011;65132;52.088;5.402;2024-02-16T14:26:55;5.50;;;1.30;;
76320;SDS011;65132;52.088;5.402;2024-02-16T14:29:22;5.00;;;1.58;;
76320;SDS011;65132;52.088;5.402;2024-02-16T14:31:51;3.95;;;1.60;;
76320;SDS011;65132;52.088;5.402;2024-02-16T14:34:17;3.60;;;1.70;;
76320;SDS011;65132;52.088;5.402;2024-02-16T14:36:51;5.07;;;1.80;;
76320;SDS011;65132;52.088;5.402;2024-02-16T14:39:17;5.30;;;1.50;;
76320;SDS011;65132;52.088;5.402;2024-02-16T14:41:44;4.82;;;2.08;;
76320;SDS011;65132;52.088;5.402;2024-02-16T14:44:11;4.47;;;1.77;;
76320;SDS011;65132;52.088;5.402;2024-02-16T14:46:37;4.05;;;1.40;;
76320;SDS011;65132;52.088;5.402;2024-02-16T14:49:04;5.55;;;2.10;;
76320;SDS011;65132;52.088;5.402;2024-02-16T14:51:30;5.35;;;2.25;;
76320;SDS011;65132;52.088;5.402;2024-02-16T14:53:57;4.90;;;2.20;;
76320;SDS011;65132;52.088;5.402;2024-02-16T14:56:23;6.05;;;2.22;;
76320;SDS011;65132;52.088;5.402;2024-02-16T14:58:50;4.38;;;1.92;;
76320;SDS011;65132;52.088;5.402;2024-02-16T15:01:16;5.90;;;2.40;;
76320;SDS011;65132;52.088;5.402;2024-02-16T15:03:43;6.38;;;2.13;;
76320;SDS011;65132;52.088;5.402;2024-02-16T15:06:12;4.80;;;2.20;;
76320;SDS011;65132;52.088;5.402;2024-02-16T15:08:38;4.47;;;2.45;;
76320;SDS011;65132;52.088;5.402;2024-02-16T15:11:05;6.88;;;2.67;;
76320;SDS011;65132;52.088;5.402;2024-02-16T15:13:31;5.07;;;2.70;;
76320;SDS011;65132;52.088;5.402;2024-02-16T15:15:58;7.65;;;2.40;;
76320;SDS011;65132;52.088;5.402;2024-02-16T15:18:24;6.10;;;3.05;;
76320;SDS011;65132;52.088;5.402;2024-02-16T15:20:51;6.65;;;2.63;;
76320;SDS011;65132;52.088;5.402;2024-02-16T15:23:20;7.28;;;2.25;;
76320;SDS011;65132;52.088;5.402;2024-02-16T15:25:47;6.45;;;2.63;;